Time;durP1;ratioP1;P1;durP2;ratioP2;P2;SDS_P1;SDS_P2;PMS_P1;PMS_P2;Temp;Humidity;BMP_temperature;BMP_pressure;BME280_temperature;BME280_humidity;BME280_pressure;Samples;Min_cycle;Max_cycle;Signal;HPM_P1;HPM_P2
2023/08/25 00:02:02;;;;;;;;;;;22.40;73.20;;;;;;5093874;28;19968;-65
2023/08/25 00:04:27;;;;;;;;;;;22.40;73.30;;;;;;5094392;28;19926;-65
2023/08/25 00:06:53;;;;;;;;;;;22.40;73.20;;;;;;5111917;28;19930;-65
2023/08/25 00:09:18;;;;;;;;;;;22.40;73.30;;;;;;5112398;28;19927;-65
2023/08/25 00:11:44;;;;;;;;;;;22.30;73.20;;;;;;5094209;28;19959;-66
2023/08/25 00:14:09;;;;;;;;;;;22.30;73.20;;;;;;5095307;28;19919;-66
2023/08/25 00:16:35;;;;;;;;;;;22.40;73.30;;;;;;5098008;28;20216;-65
2023/08/25 00:19:00;;;;;;;;;;;22.40;73.30;;;;;;5115772;28;20015;-65
2023/08/25 00:21:26;;;;;;;;;;;22.30;73.20;;;;;;5115780;28;19926;-65
2023/08/25 00:23:51;;;;;;;;;;;22.40;73.30;;;;;;5131950;27;19969;-65
2023/08/25 00:26:17;;;;;;;;;;;22.30;73.30;;;;;;5116066;28;20482;-66
2023/08/25 00:28:42;;;;;;;;;;;22.30;73.20;;;;;;5115784;28;19924;-66
2023/08/25 00:31:08;;;;;;;;;;;22.30;73.30;;;;;;5097641;28;20371;-65
2023/08/25 00:33:33;;;;;;;;;;;22.30;73.30;;;;;;5115535;28;19927;-65
2023/08/25 00:35:59;;;;;;;;;;;22.30;73.30;;;;;;5097548;28;19924;-65
2023/08/25 00:38:28;;;;;;;;;;;22.30;73.30;;;;;;5115501;28;20023;-66
2023/08/25 00:40:53;;;;;;;;;;;22.30;73.30;;;;;;5097570;28;19959;-65
2023/08/25 00:43:19;;;;;;;;;;;22.30;73.30;;;;;;5131203;27;19982;-65
2023/08/25 00:45:44;;;;;;;;;;;22.30;73.30;;;;;;5097386;28;19926;-65
2023/08/25 00:48:10;;;;;;;;;;;22.30;73.30;;;;;;5096955;28;20298;-65
2023/08/25 00:50:36;;;;;;;;;;;22.30;73.30;;;;;;5096881;28;20402;-65
2023/08/25 00:53:03;;;;;;;;;;;22.30;73.30;;;;;;5096937;28;19980;-65
2023/08/25 00:55:29;;;;;;;;;;;22.30;73.40;;;;;;5115230;28;20279;-65
2023/08/25 00:57:55;;;;;;;;;;;22.30;73.30;;;;;;5131172;27;19927;-65
2023/08/25 01:00:21;;;;;;;;;;;22.30;73.40;;;;;;5097023;28;19927;-65
2023/08/25 01:02:46;;;;;;;;;;;22.30;73.40;;;;;;5114149;28;19924;-65
2023/08/25 01:05:12;;;;;;;;;;;22.30;73.40;;;;;;5096677;28;20018;-66
2023/08/25 01:07:37;;;;;;;;;;;22.30;73.40;;;;;;5096223;28;19928;-66
2023/08/25 01:10:03;;;;;;;;;;;22.30;73.40;;;;;;5096616;28;20006;-65
2023/08/25 01:12:49;;;;;;;;;;;22.30;73.40;;;;;;5096511;28;19924;-66
2023/08/25 01:15:19;;;;;;;;;;;22.30;73.40;;;;;;5114623;28;19924;-66
2023/08/25 01:17:52;;;;;;;;;;;22.30;73.40;;;;;;5096717;28;19920;-65
2023/08/25 01:20:22;;;;;;;;;;;22.30;73.40;;;;;;5096338;28;19926;-65
2023/08/25 01:25:44;;;;;;;;;;;22.30;73.40;;;;;;5130844;27;19916;-65
2023/08/25 01:28:09;;;;;;;;;;;22.30;73.40;;;;;;5129367;28;19969;-65
2023/08/25 01:30:35;;;;;;;;;;;22.30;73.40;;;;;;5129712;28;19928;-65
2023/08/25 01:33:02;;;;;;;;;;;22.30;73.50;;;;;;5129351;28;20290;-65
2023/08/25 01:35:42;;;;;;;;;;;22.30;73.50;;;;;;5130648;27;20004;-66
2023/08/25 01:38:15;;;;;;;;;;;22.30;73.40;;;;;;5130531;27;19926;-65
2023/08/25 01:40:44;;;;;;;;;;;22.30;73.50;;;;;;5129614;28;20342;-71
2023/08/25 01:43:10;;;;;;;;;;;22.30;73.50;;;;;;5129444;28;19931;-65
2023/08/25 01:45:36;;;;;;;;;;;22.30;73.50;;;;;;5129024;28;20390;-65
2023/08/25 01:48:05;;;;;;;;;;;22.30;73.50;;;;;;5129365;28;19919;-65
2023/08/25 01:50:32;;;;;;;;;;;22.30;73.50;;;;;;5130287;27;19963;-65
2023/08/25 01:52:57;;;;;;;;;;;22.30;73.50;;;;;;5130323;27;20306;-66
2023/08/25 01:55:23;;;;;;;;;;;22.30;73.50;;;;;;5128819;28;19931;-65
2023/08/25 01:57:48;;;;;;;;;;;22.30;73.50;;;;;;5129108;28;19920;-65
2023/08/25 02:00:14;;;;;;;;;;;22.30;73.50;;;;;;5129141;28;19919;-65
2023/08/25 02:02:40;;;;;;;;;;;22.30;73.50;;;;;;5128719;28;19920;-65
2023/08/25 02:05:05;;;;;;;;;;;22.30;73.50;;;;;;5129180;28;20023;-65
2023/08/25 02:07:31;;;;;;;;;;;22.30;73.50;;;;;;5129026;28;20286;-65
2023/08/25 02:09:56;;;;;;;;;;;22.30;73.50;;;;;;5128925;28;19924;-65
2023/08/25 02:12:22;;;;;;;;;;;22.30;73.60;;;;;;5163143;27;20354;-65
2023/08/25 02:14:47;;;;;;;;;;;22.30;73.50;;;;;;5128810;28;19939;-66
2023/08/25 02:17:13;;;;;;;;;;;22.30;73.60;;;;;;5128535;28;19927;-65
2023/08/25 02:19:38;;;;;;;;;;;22.30;73.60;;;;;;5162998;27;19966;-65
2023/08/25 02:22:04;;;;;;;;;;;22.30;73.60;;;;;;5129734;28;19920;-65
2023/08/25 02:24:30;;;;;;;;;;;22.30;73.60;;;;;;5128013;28;19985;-66
2023/08/25 02:26:55;;;;;;;;;;;22.30;73.60;;;;;;5128598;28;19924;-65
2023/08/25 02:29:21;;;;;;;;;;;22.30;73.60;;;;;;5128275;28;20409;-66
2023/08/25 02:31:47;;;;;;;;;;;22.30;73.60;;;;;;5128605;28;19920;-71
2023/08/25 02:34:12;;;;;;;;;;;22.30;73.60;;;;;;5128267;28;19964;-65
2023/08/25 02:36:38;;;;;;;;;;;22.30;73.70;;;;;;5116971;28;19973;-66
2023/08/25 02:39:03;;;;;;;;;;;22.30;73.60;;;;;;5114782;28;20008;-70
2023/08/25 02:41:29;;;;;;;;;;;22.30;73.60;;;;;;5115603;28;19920;-65
2023/08/25 02:43:54;;;;;;;;;;;22.30;73.70;;;;;;5148634;27;20405;-65
2023/08/25 02:46:20;;;;;;;;;;;22.30;73.60;;;;;;5114325;28;20036;-65
2023/08/25 02:48:45;;;;;;;;;;;22.30;73.70;;;;;;5115767;28;19919;-66
2023/08/25 02:51:11;;;;;;;;;;;22.30;73.70;;;;;;5115582;28;19989;-65
2023/08/25 02:53:36;;;;;;;;;;;22.30;73.70;;;;;;5115579;28;20010;-70
2023/08/25 02:56:02;;;;;;;;;;;22.20;73.60;;;;;;5115338;28;19926;-71
2023/08/25 02:58:28;;;;;;;;;;;22.20;73.60;;;;;;5114327;28;19924;-65
2023/08/25 03:00:53;;;;;;;;;;;22.30;73.70;;;;;;5113959;28;19926;-65
2023/08/25 03:03:19;;;;;;;;;;;22.30;73.70;;;;;;5115376;28;19923;-65
2023/08/25 03:05:44;;;;;;;;;;;22.20;73.60;;;;;;5115253;28;19924;-65
2023/08/25 03:08:14;;;;;;;;;;;22.20;73.60;;;;;;5114142;28;19998;-65
2023/08/25 03:10:43;;;;;;;;;;;22.20;73.70;;;;;;5113988;28;19965;-65
2023/08/25 03:13:09;;;;;;;;;;;22.30;74.50;;;;;;5114088;28;19926;-65
2023/08/25 03:15:35;;;;;;;;;;;22.20;73.70;;;;;;5113722;28;19924;-70
2023/08/25 03:18:00;;;;;;;;;;;22.20;73.70;;;;;;5115186;28;19926;-65
2023/08/25 03:20:26;;;;;;;;;;;22.20;73.70;;;;;;5115073;28;19927;-65
2023/08/25 03:22:52;;;;;;;;;;;22.20;73.70;;;;;;5113629;28;20395;-65
2023/08/25 03:25:18;;;;;;;;;;;22.20;74.40;;;;;;5099451;28;20394;-65
2023/08/25 03:27:43;;;;;;;;;;;22.20;73.70;;;;;;5114735;28;19967;-65
2023/08/25 03:30:09;;;;;;;;;;;22.20;73.70;;;;;;5114630;28;20012;-65
2023/08/25 03:32:34;;;;;;;;;;;22.20;73.70;;;;;;5096651;28;20275;-65
2023/08/25 03:35:00;;;;;;;;;;;22.20;73.70;;;;;;5096350;28;19920;-65
2023/08/25 03:37:26;;;;;;;;;;;22.20;73.70;;;;;;5114698;28;19927;-65
2023/08/25 03:39:52;;;;;;;;;;;22.20;73.70;;;;;;5096608;28;19919;-66
2023/08/25 03:42:17;;;;;;;;;;;22.20;73.70;;;;;;5096243;28;19926;-66
2023/08/25 03:44:45;;;;;;;;;;;22.20;73.80;;;;;;5114463;28;20289;-71
2023/08/25 03:47:10;;;;;;;;;;;22.20;73.80;;;;;;5095156;28;19924;-66
2023/08/25 03:49:35;;;;;;;;;;;22.20;73.80;;;;;;5096099;28;20305;-65
2023/08/25 03:52:01;;;;;;;;;;;22.20;73.80;;;;;;5114388;28;19920;-65
2023/08/25 03:54:31;;;;;;;;;;;22.20;73.80;;;;;;5096240;28;20450;-65
2023/08/25 03:56:56;;;;;;;;;;;22.20;73.80;;;;;;5114211;28;19926;-65
2023/08/25 03:59:22;;;;;;;;;;;22.20;73.80;;;;;;5096110;28;20010;-65
2023/08/25 04:01:47;;;;;;;;;;;22.20;73.80;;;;;;5095802;28;19926;-65
2023/08/25 04:04:13;;;;;;;;;;;22.20;73.80;;;;;;5114450;28;19931;-65
2023/08/25 04:06:39;;;;;;;;;;;22.20;73.80;;;;;;5130267;27;19919;-70
2023/08/25 04:09:04;;;;;;;;;;;22.20;73.80;;;;;;5095638;28;19924;-66
2023/08/25 04:11:30;;;;;;;;;;;22.20;73.80;;;;;;5129369;27;19945;-65
2023/08/25 04:13:55;;;;;;;;;;;22.20;73.80;;;;;;5095555;28;20290;-65
2023/08/25 04:16:21;;;;;;;;;;;22.20;73.80;;;;;;5113812;28;20032;-65
2023/08/25 04:18:46;;;;;;;;;;;22.20;73.80;;;;;;5095540;28;19919;-65
2023/08/25 04:21:11;;;;;;;;;;;22.20;73.80;;;;;;5095529;28;19919;-65
2023/08/25 04:23:37;;;;;;;;;;;22.20;73.80;;;;;;5095108;28;19927;-65
2023/08/25 04:26:02;;;;;;;;;;;22.20;73.80;;;;;;5113777;28;19941;-65
2023/08/25 04:28:28;;;;;;;;;;;22.20;73.80;;;;;;5113630;28;19998;-65
2023/08/25 04:30:54;;;;;;;;;;;22.20;73.80;;;;;;5113456;28;19920;-65
2023/08/25 04:33:20;;;;;;;;;;;22.20;73.80;;;;;;5095485;28;20290;-65
2023/08/25 04:35:45;;;;;;;;;;;22.20;73.80;;;;;;5113394;28;20332;-65
2023/08/25 04:38:11;;;;;;;;;;;22.20;73.80;;;;;;5095237;28;19944;-66
2023/08/25 04:40:36;;;;;;;;;;;22.20;73.80;;;;;;5113395;28;19919;-65
2023/08/25 04:43:02;;;;;;;;;;;22.20;73.80;;;;;;5095481;28;19959;-65
2023/08/25 04:45:27;;;;;;;;;;;22.20;73.80;;;;;;5095315;28;19919;-65
2023/08/25 04:47:53;;;;;;;;;;;22.20;73.80;;;;;;5095278;28;19966;-65
2023/08/25 04:50:18;;;;;;;;;;;22.20;73.80;;;;;;5095244;28;19920;-66
2023/08/25 04:52:44;;;;;;;;;;;22.20;73.80;;;;;;5094999;28;19919;-65
2023/08/25 04:55:10;;;;;;;;;;;22.20;73.80;;;;;;5094947;28;19931;-65
2023/08/25 04:57:35;;;;;;;;;;;22.10;73.70;;;;;;5094889;28;19920;-65
2023/08/25 05:00:05;;;;;;;;;;;22.20;73.80;;;;;;5094834;28;19923;-70
2023/08/25 05:02:31;;;;;;;;;;;22.10;73.70;;;;;;5112910;28;19919;-65
2023/08/25 05:04:57;;;;;;;;;;;22.10;73.80;;;;;;5094752;28;20358;-65
2023/08/25 05:07:22;;;;;;;;;;;22.10;73.70;;;;;;5095094;28;20003;-65
2023/08/25 05:09:49;;;;;;;;;;;22.10;73.70;;;;;;5095082;28;19919;-65
2023/08/25 05:12:14;;;;;;;;;;;22.10;73.80;;;;;;5094750;28;20281;-65
2023/08/25 05:14:40;;;;;;;;;;;22.10;73.70;;;;;;5112879;28;19931;-66
2023/08/25 05:17:05;;;;;;;;;;;22.10;73.70;;;;;;5113218;28;20002;-65
2023/08/25 05:19:30;;;;;;;;;;;22.10;73.70;;;;;;5094938;28;19920;-65
2023/08/25 05:21:56;;;;;;;;;;;22.10;73.70;;;;;;5112911;28;19942;-65
2023/08/25 05:24:24;;;;;;;;;;;22.10;73.70;;;;;;5100477;28;19924;-65
2023/08/25 05:26:53;;;;;;;;;;;22.20;73.80;;;;;;5111385;28;19919;-65
2023/08/25 05:29:20;;;;;;;;;;;22.10;73.80;;;;;;5111485;28;19919;-65
2023/08/25 05:31:46;;;;;;;;;;;22.10;73.70;;;;;;5111345;28;19920;-65
2023/08/25 05:34:11;;;;;;;;;;;22.10;73.70;;;;;;5112921;28;20058;-71
2023/08/25 05:36:37;;;;;;;;;;;22.10;73.80;;;;;;5111344;28;20404;-70
2023/08/25 05:39:02;;;;;;;;;;;22.10;73.80;;;;;;5112714;28;20256;-65
2023/08/25 05:41:28;;;;;;;;;;;22.10;73.70;;;;;;5111219;28;19989;-66
2023/08/25 05:43:54;;;;;;;;;;;22.10;73.70;;;;;;5112604;28;20014;-65
2023/08/25 05:46:19;;;;;;;;;;;22.10;73.80;;;;;;5112570;28;19943;-65
2023/08/25 05:48:45;;;;;;;;;;;22.10;73.70;;;;;;5111240;28;19962;-66
2023/08/25 05:51:10;;;;;;;;;;;22.10;73.70;;;;;;5112186;28;19920;-65
2023/08/25 05:53:36;;;;;;;;;;;22.10;73.80;;;;;;5112103;28;20298;-66
2023/08/25 05:56:04;;;;;;;;;;;22.10;73.80;;;;;;5111205;28;19920;-66
2023/08/25 05:58:30;;;;;;;;;;;22.10;73.80;;;;;;5111091;28;19919;-68
2023/08/25 06:00:56;;;;;;;;;;;22.10;73.90;;;;;;5111108;28;19968;-67
2023/08/25 06:03:22;;;;;;;;;;;22.10;75.60;;;;;;5111249;28;20019;-66
2023/08/25 06:05:51;;;;;;;;;;;22.00;76.40;;;;;;5111171;28;20435;-66
2023/08/25 06:08:17;;;;;;;;;;;21.90;76.70;;;;;;5111297;28;19955;-67
2023/08/25 06:10:42;;;;;;;;;;;21.80;77.00;;;;;;5112087;28;19920;-66
2023/08/25 06:13:08;;;;;;;;;;;21.70;77.20;;;;;;5116591;28;19920;-66
2023/08/25 06:15:33;;;;;;;;;;;21.70;77.60;;;;;;5114872;28;19980;-66
2023/08/25 06:17:59;;;;;;;;;;;21.60;78.30;;;;;;5115993;28;19920;-66
2023/08/25 06:20:25;;;;;;;;;;;21.60;78.50;;;;;;5116396;28;19931;-66
2023/08/25 06:22:50;;;;;;;;;;;21.50;78.70;;;;;;5116285;28;20294;-65
2023/08/25 06:25:16;;;;;;;;;;;21.50;80.60;;;;;;5114522;28;19930;-67
2023/08/25 06:27:41;;;;;;;;;;;21.50;80.40;;;;;;5115911;28;19924;-67
2023/08/25 06:30:08;;;;;;;;;;;21.50;80.60;;;;;;5115918;28;19920;-67
2023/08/25 06:32:33;;;;;;;;;;;21.40;80.30;;;;;;5114925;28;19920;-66
2023/08/25 06:34:59;;;;;;;;;;;21.40;80.50;;;;;;5114381;28;19930;-66
2023/08/25 06:37:24;;;;;;;;;;;21.40;80.60;;;;;;5115909;28;19971;-66
2023/08/25 06:39:50;;;;;;;;;;;21.40;80.90;;;;;;5113496;28;19927;-65
2023/08/25 06:42:16;;;;;;;;;;;21.30;81.30;;;;;;5114654;28;19976;-65
2023/08/25 06:44:42;;;;;;;;;;;21.30;81.10;;;;;;5112628;28;19926;-69
2023/08/25 06:47:07;;;;;;;;;;;21.30;82.00;;;;;;5112548;28;20329;-64
2023/08/25 06:49:33;;;;;;;;;;;21.30;81.60;;;;;;5114065;28;19970;-65
2023/08/25 06:51:58;;;;;;;;;;;21.30;81.70;;;;;;5104205;27;19927;-65
2023/08/25 06:54:24;;;;;;;;;;;21.30;82.10;;;;;;5105344;28;20588;-65
2023/08/25 06:56:50;;;;;;;;;;;21.30;83.50;;;;;;5104199;27;20006;-65
2023/08/25 06:59:16;;;;;;;;;;;21.30;83.50;;;;;;5103361;28;20002;-65
2023/08/25 07:01:41;;;;;;;;;;;21.20;82.70;;;;;;5128156;27;19921;-65
2023/08/25 07:04:07;;;;;;;;;;;21.20;83.50;;;;;;5137960;27;19946;-65
2023/08/25 07:06:32;;;;;;;;;;;21.20;83.40;;;;;;5102539;28;19924;-65
2023/08/25 07:08:58;;;;;;;;;;;21.20;83.40;;;;;;5113173;27;19920;-65
2023/08/25 07:11:26;;;;;;;;;;;21.30;83.00;;;;;;5086876;28;20275;-64
2023/08/25 07:13:51;;;;;;;;;;;21.20;83.20;;;;;;5106366;28;20039;-65
2023/08/25 07:16:17;;;;;;;;;;;21.30;81.80;;;;;;5106919;28;20064;-66
2023/08/25 07:18:43;;;;;;;;;;;21.30;81.10;;;;;;5108023;28;20298;-65
2023/08/25 07:21:10;;;;;;;;;;;21.40;80.70;;;;;;5096445;28;19935;-65
2023/08/25 07:23:36;;;;;;;;;;;21.40;81.40;;;;;;5127381;27;20278;-65
2023/08/25 07:26:01;;;;;;;;;;;21.50;81.80;;;;;;5114094;27;19924;-65
2023/08/25 07:28:27;;;;;;;;;;;21.50;83.00;;;;;;5110226;28;19924;-66
2023/08/25 07:30:52;;;;;;;;;;;21.50;81.40;;;;;;5102139;27;19935;-65
2023/08/25 07:33:18;;;;;;;;;;;21.50;80.50;;;;;;5112182;28;19920;-66
2023/08/25 07:35:44;;;;;;;;;;;21.60;80.20;;;;;;5106102;27;19920;-65
2023/08/25 07:38:10;;;;;;;;;;;21.70;80.20;;;;;;5114169;28;19924;-64
2023/08/25 07:40:37;;;;;;;;;;;21.70;79.90;;;;;;5112021;27;20297;-65
2023/08/25 07:43:03;;;;;;;;;;;21.90;80.10;;;;;;5085402;28;19920;-65
2023/08/25 07:45:29;;;;;;;;;;;21.90;79.50;;;;;;5103377;28;19923;-65
2023/08/25 07:47:55;;;;;;;;;;;22.00;79.80;;;;;;5087255;28;19924;-64
2023/08/25 07:50:21;;;;;;;;;;;22.00;81.10;;;;;;5077059;28;19924;-63
2023/08/25 07:52:47;;;;;;;;;;;22.00;79.30;;;;;;5119956;27;19923;-63
2023/08/25 07:55:12;;;;;;;;;;;22.10;79.50;;;;;;5112293;27;19920;-64
2023/08/25 07:57:38;;;;;;;;;;;22.10;79.50;;;;;;5124857;27;20374;-65
2023/08/25 08:00:09;;;;;;;;;;;22.10;79.00;;;;;;5093035;28;19927;-65
2023/08/25 08:02:35;;;;;;;;;;;22.20;79.20;;;;;;5104309;27;20029;-65
2023/08/25 08:05:01;;;;;;;;;;;22.20;79.00;;;;;;5103312;28;19920;-67
2023/08/25 08:07:26;;;;;;;;;;;22.20;79.40;;;;;;5094572;28;19935;-64
2023/08/25 08:09:52;;;;;;;;;;;22.20;79.60;;;;;;5089053;28;19920;-66
2023/08/25 08:12:17;;;;;;;;;;;22.20;80.10;;;;;;5094217;28;19984;-67
2023/08/25 08:14:43;;;;;;;;;;;22.20;80.30;;;;;;5127383;27;19920;-65
2023/08/25 08:17:08;;;;;;;;;;;22.10;80.90;;;;;;5102037;27;19927;-65
2023/08/25 08:19:34;;;;;;;;;;;22.10;81.80;;;;;;5075269;28;20352;-65
2023/08/25 08:21:59;;;;;;;;;;;22.10;80.70;;;;;;5099609;27;19924;-66
2023/08/25 08:24:26;;;;;;;;;;;22.10;80.90;;;;;;5084503;28;19994;-66
2023/08/25 08:26:51;;;;;;;;;;;22.10;81.20;;;;;;5125997;27;19920;-66
2023/08/25 08:29:17;;;;;;;;;;;22.10;80.70;;;;;;5106274;27;19924;-66
2023/08/25 08:31:42;;;;;;;;;;;22.10;81.20;;;;;;5134152;27;19966;-68
2023/08/25 08:34:08;;;;;;;;;;;22.00;82.00;;;;;;5103434;28;20331;-67
2023/08/25 08:36:34;;;;;;;;;;;22.00;81.60;;;;;;5139675;27;19968;-66
2023/08/25 08:39:02;;;;;;;;;;;22.00;81.80;;;;;;5104282;28;20010;-65
2023/08/25 08:41:29;;;;;;;;;;;22.00;80.50;;;;;;5095770;28;20029;-66
2023/08/25 08:43:56;;;;;;;;;;;22.00;80.80;;;;;;5100299;27;19977;-66
2023/08/25 08:46:22;;;;;;;;;;;22.00;81.70;;;;;;5112291;28;20014;-65
2023/08/25 08:48:49;;;;;;;;;;;22.00;82.10;;;;;;5110769;27;19927;-66
2023/08/25 08:51:15;;;;;;;;;;;22.00;81.70;;;;;;5097208;28;20401;-66
2023/08/25 08:53:41;;;;;;;;;;;22.10;81.20;;;;;;5106372;28;19976;-65
2023/08/25 08:56:07;;;;;;;;;;;22.10;82.70;;;;;;5094486;28;20006;-66
2023/08/25 08:58:33;;;;;;;;;;;22.10;82.60;;;;;;5097195;28;20327;-66
2023/08/25 09:00:59;;;;;;;;;;;22.10;82.30;;;;;;5105113;28;20064;-65
2023/08/25 09:03:29;;;;;;;;;;;22.10;81.60;;;;;;5101461;28;19931;-65
2023/08/25 09:05:57;;;;;;;;;;;22.10;81.00;;;;;;5096068;28;19943;-70
2023/08/25 09:08:24;;;;;;;;;;;22.10;82.00;;;;;;5092568;28;20311;-65
2023/08/25 09:10:49;;;;;;;;;;;22.10;82.00;;;;;;5130561;27;19942;-66
2023/08/25 09:13:15;;;;;;;;;;;22.10;81.40;;;;;;5099621;28;20022;-66
2023/08/25 09:15:40;;;;;;;;;;;22.10;80.50;;;;;;5141101;27;19980;-65
2023/08/25 09:18:06;;;;;;;;;;;22.10;80.90;;;;;;5099784;28;19927;-65
2023/08/25 09:20:34;;;;;;;;;;;22.10;82.20;;;;;;5095764;28;20367;-65
2023/08/25 09:23:00;;;;;;;;;;;22.00;82.00;;;;;;5095975;28;19993;-65
2023/08/25 09:25:26;;;;;;;;;;;22.00;82.80;;;;;;5100324;28;19924;-65
2023/08/25 09:27:56;;;;;;;;;;;22.10;83.10;;;;;;5087066;28;19926;-66
2023/08/25 09:30:31;;;;;;;;;;;22.00;82.20;;;;;;5074592;28;20375;-65
2023/08/25 09:33:05;;;;;;;;;;;22.00;81.60;;;;;;5115090;27;19920;-65
2023/08/25 09:35:31;;;;;;;;;;;22.00;82.30;;;;;;5098177;28;19920;-65
2023/08/25 09:37:57;;;;;;;;;;;22.00;81.70;;;;;;5101991;28;20426;-65
2023/08/25 09:40:22;;;;;;;;;;;22.00;81.70;;;;;;5081587;28;20019;-65
2023/08/25 09:42:48;;;;;;;;;;;22.00;82.60;;;;;;5102438;28;19924;-65
2023/08/25 09:45:14;;;;;;;;;;;22.00;81.30;;;;;;5074486;28;19931;-65
2023/08/25 09:47:42;;;;;;;;;;;22.00;80.60;;;;;;5110529;28;19920;-65
2023/08/25 09:50:11;;;;;;;;;;;22.10;80.60;;;;;;5123219;27;20367;-71
2023/08/25 09:52:38;;;;;;;;;;;22.10;81.40;;;;;;5113222;28;19934;-65
2023/08/25 09:55:05;;;;;;;;;;;22.10;82.20;;;;;;5089557;28;19945;-65
2023/08/25 09:57:31;;;;;;;;;;;22.10;82.20;;;;;;5112649;28;19920;-65
2023/08/25 09:59:57;;;;;;;;;;;22.10;82.50;;;;;;5125698;27;20346;-65
2023/08/25 10:02:22;;;;;;;;;;;22.10;83.20;;;;;;5092951;28;20022;-65
2023/08/25 10:04:48;;;;;;;;;;;22.00;83.60;;;;;;5077794;28;20425;-65
2023/08/25 10:07:14;;;;;;;;;;;22.00;83.70;;;;;;5105898;28;19945;-65
2023/08/25 10:09:39;;;;;;;;;;;21.90;84.70;;;;;;5081885;28;20294;-66
2023/08/25 10:12:07;;;;;;;;;;;21.90;83.60;;;;;;5095198;28;20321;-65
2023/08/25 10:14:33;;;;;;;;;;;22.00;82.40;;;;;;5085886;28;19924;-65
2023/08/25 10:17:00;;;;;;;;;;;22.00;82.20;;;;;;5089010;28;19920;-66
2023/08/25 10:19:27;;;;;;;;;;;22.00;82.20;;;;;;5080943;28;19959;-73
2023/08/25 10:21:54;;;;;;;;;;;22.00;81.60;;;;;;5093855;28;20385;-72
2023/08/25 10:24:20;;;;;;;;;;;22.10;81.50;;;;;;5087590;28;19924;-72
2023/08/25 10:26:47;;;;;;;;;;;22.10;81.40;;;;;;5102979;27;20374;-65
2023/08/25 10:29:13;;;;;;;;;;;22.10;81.30;;;;;;5136438;27;20283;-65
2023/08/25 10:37:10;;;;;;;;;;;22.10;81.10;;;;;;5103994;27;19912;-66
2023/08/25 10:39:55;;;;;;;;;;;22.10;81.10;;;;;;5122986;28;20354;-66
2023/08/25 10:42:25;;;;;;;;;;;22.10;81.00;;;;;;5087447;28;20367;-66
2023/08/25 10:44:55;;;;;;;;;;;22.10;81.00;;;;;;5122768;28;19943;-66
2023/08/25 10:47:21;;;;;;;;;;;22.10;81.00;;;;;;5087471;28;19923;-66
2023/08/25 10:49:46;;;;;;;;;;;22.10;81.00;;;;;;5088815;28;20243;-65
2023/08/25 10:52:16;;;;;;;;;;;22.10;81.00;;;;;;5086737;28;20201;-66
2023/08/25 10:54:44;;;;;;;;;;;22.10;81.00;;;;;;5088868;28;20007;-65
2023/08/25 10:57:29;;;;;;;;;;;22.10;80.80;;;;;;5087181;28;19924;-65
2023/08/25 10:59:55;;;;;;;;;;;22.10;80.70;;;;;;5119378;28;19940;-65
2023/08/25 11:02:36;;;;;;;;;;;22.10;80.60;;;;;;5085835;28;19927;-66
2023/08/25 11:05:22;;;;;;;;;;;22.10;80.60;;;;;;5115754;28;20386;-65
2023/08/25 11:07:47;;;;;;;;;;;22.10;80.50;;;;;;5113857;28;20338;-66
2023/08/25 11:10:13;;;;;;;;;;;22.10;80.50;;;;;;5088666;28;19963;-72
2023/08/25 11:12:40;;;;;;;;;;;22.10;80.50;;;;;;5120641;28;19916;-67
2023/08/25 11:15:07;;;;;;;;;;;22.10;80.40;;;;;;5122274;28;19921;-72
2023/08/25 11:17:33;;;;;;;;;;;22.10;80.40;;;;;;5120078;28;19927;-66
2023/08/25 11:19:58;;;;;;;;;;;22.10;80.30;;;;;;5088056;28;19916;-66
2023/08/25 11:22:24;;;;;;;;;;;22.10;80.30;;;;;;5120669;28;20419;-66
2023/08/25 11:24:49;;;;;;;;;;;22.10;80.20;;;;;;5088971;28;19916;-65
2023/08/25 11:27:16;;;;;;;;;;;22.10;81.00;;;;;;5088358;28;20003;-71
2023/08/25 11:29:45;;;;;;;;;;;22.10;80.20;;;;;;5088045;28;19924;-65
2023/08/25 11:32:11;;;;;;;;;;;22.10;80.20;;;;;;5088034;28;19928;-65
2023/08/25 11:34:37;;;;;;;;;;;22.10;80.10;;;;;;5088835;28;20046;-65
2023/08/25 11:37:03;;;;;;;;;;;22.10;80.10;;;;;;5106547;28;19998;-72
2023/08/25 11:39:28;;;;;;;;;;;22.10;80.10;;;;;;5105858;28;20274;-66
2023/08/25 11:41:54;;;;;;;;;;;22.10;80.00;;;;;;5090165;28;19916;-66
2023/08/25 11:44:20;;;;;;;;;;;22.10;79.90;;;;;;5109150;28;19916;-65
2023/08/25 11:46:45;;;;;;;;;;;22.10;79.90;;;;;;5087167;28;20305;-65
2023/08/25 11:49:11;;;;;;;;;;;22.10;79.90;;;;;;5095384;28;19920;-66
2023/08/25 11:51:37;;;;;;;;;;;22.10;79.80;;;;;;5111418;28;20019;-65
2023/08/25 11:54:03;;;;;;;;;;;22.10;79.80;;;;;;5077126;28;20362;-65
2023/08/25 11:56:29;;;;;;;;;;;22.10;79.70;;;;;;5111069;28;19997;-69
2023/08/25 11:58:54;;;;;;;;;;;22.10;79.70;;;;;;5095094;28;20359;-68
2023/08/25 12:01:20;;;;;;;;;;;22.10;79.60;;;;;;5110965;28;19916;-68
2023/08/25 12:03:46;;;;;;;;;;;22.10;79.60;;;;;;5077195;28;19959;-68
2023/08/25 12:06:13;;;;;;;;;;;22.10;79.60;;;;;;5077313;28;19974;-68
2023/08/25 12:08:40;;;;;;;;;;;22.10;79.60;;;;;;5076170;28;20092;-67
2023/08/25 12:11:07;;;;;;;;;;;22.10;79.50;;;;;;5076108;28;19923;-67
2023/08/25 12:13:35;;;;;;;;;;;22.10;79.50;;;;;;5059972;28;19916;-67
2023/08/25 12:16:02;;;;;;;;;;;22.10;79.50;;;;;;5076818;28;19924;-68
2023/08/25 12:18:35;;;;;;;;;;;22.10;79.50;;;;;;5076776;28;19916;-67
2023/08/25 12:21:03;;;;;;;;;;;22.10;79.50;;;;;;5076906;28;19920;-66
2023/08/25 12:23:37;;;;;;;;;;;22.10;79.40;;;;;;5076607;28;19916;-68
2023/08/25 12:26:03;;;;;;;;;;;22.10;79.40;;;;;;5076499;28;19923;-68
2023/08/25 12:28:29;;;;;;;;;;;22.10;79.40;;;;;;5076785;28;19916;-68
2023/08/25 12:30:54;;;;;;;;;;;22.10;79.40;;;;;;5076469;28;19926;-68
2023/08/25 12:33:20;;;;;;;;;;;22.10;79.30;;;;;;5076431;28;19920;-67
2023/08/25 12:35:45;;;;;;;;;;;22.10;79.30;;;;;;5075995;28;19920;-67
2023/08/25 12:38:10;;;;;;;;;;;22.10;79.30;;;;;;5094334;28;19920;-67
2023/08/25 12:40:36;;;;;;;;;;;22.10;79.30;;;;;;5076250;28;19916;-67
2023/08/25 12:43:04;;;;;;;;;;;22.10;79.20;;;;;;5076574;28;19951;-67
2023/08/25 12:45:29;;;;;;;;;;;22.10;79.20;;;;;;5076079;28;19916;-67
2023/08/25 12:47:54;;;;;;;;;;;22.10;79.10;;;;;;5076367;28;19924;-67
2023/08/25 12:50:20;;;;;;;;;;;22.10;79.10;;;;;;5094135;28;20410;-68
2023/08/25 12:52:46;;;;;;;;;;;22.10;79.10;;;;;;5076062;28;20003;-67
2023/08/25 12:55:14;;;;;;;;;;;22.10;79.10;;;;;;5075804;28;20286;-68
2023/08/25 12:57:40;;;;;;;;;;;22.10;79.10;;;;;;5094261;28;19916;-67
2023/08/25 13:00:06;;;;;;;;;;;22.10;79.00;;;;;;5093148;28;19923;-66
2023/08/25 13:02:31;;;;;;;;;;;22.10;79.00;;;;;;5076154;28;20273;-67
2023/08/25 13:04:56;;;;;;;;;;;22.10;79.00;;;;;;5094002;28;19923;-66
2023/08/25 13:07:22;;;;;;;;;;;22.10;78.90;;;;;;5075768;28;19916;-67
2023/08/25 13:09:51;;;;;;;;;;;22.10;78.90;;;;;;5075623;28;19931;-67
2023/08/25 13:12:16;;;;;;;;;;;22.10;78.90;;;;;;5075490;28;19923;-67
2023/08/25 13:14:42;;;;;;;;;;;22.10;78.90;;;;;;5093907;28;19916;-65
2023/08/25 13:17:07;;;;;;;;;;;22.10;78.90;;;;;;5109304;28;19989;-65
2023/08/25 13:19:33;;;;;;;;;;;22.10;78.90;;;;;;5075803;28;19916;-65
2023/08/25 13:21:59;;;;;;;;;;;22.10;78.90;;;;;;5075418;28;19915;-64
2023/08/25 13:24:24;;;;;;;;;;;22.10;78.80;;;;;;5093499;28;19923;-64
2023/08/25 13:26:49;;;;;;;;;;;22.10;78.80;;;;;;5075432;28;19969;-64
2023/08/25 13:29:15;;;;;;;;;;;22.10;78.80;;;;;;5075314;28;20334;-64
2023/08/25 13:31:40;;;;;;;;;;;22.10;78.80;;;;;;5093395;28;19989;-64
2023/08/25 13:34:06;;;;;;;;;;;22.10;78.70;;;;;;5075731;28;20198;-64
2023/08/25 13:36:31;;;;;;;;;;;22.10;78.70;;;;;;5074883;28;19920;-65
2023/08/25 13:38:57;;;;;;;;;;;22.10;78.70;;;;;;5093213;28;19942;-65
2023/08/25 13:41:22;;;;;;;;;;;22.10;78.70;;;;;;5075438;28;19923;-64
2023/08/25 13:43:48;;;;;;;;;;;22.10;78.60;;;;;;5075524;28;19947;-64
2023/08/25 13:46:13;;;;;;;;;;;22.10;78.60;;;;;;5074959;28;19923;-64
2023/08/25 13:48:39;;;;;;;;;;;22.10;78.60;;;;;;5093020;28;20015;-64
2023/08/25 13:51:05;;;;;;;;;;;22.10;78.60;;;;;;5093184;28;19923;-64
2023/08/25 13:53:30;;;;;;;;;;;22.10;78.60;;;;;;5074820;28;19938;-64
2023/08/25 13:55:56;;;;;;;;;;;22.10;78.50;;;;;;5074604;28;19927;-65
2023/08/25 13:58:21;;;;;;;;;;;22.10;78.50;;;;;;5074732;28;20010;-65
2023/08/25 14:00:47;;;;;;;;;;;22.10;78.50;;;;;;5074942;28;20266;-67
2023/08/25 14:03:12;;;;;;;;;;;22.10;78.50;;;;;;5074648;28;19931;-64
2023/08/25 14:05:38;;;;;;;;;;;22.10;78.40;;;;;;5092972;28;19923;-64
2023/08/25 14:08:05;;;;;;;;;;;22.10;78.40;;;;;;5074945;28;20299;-64
2023/08/25 14:10:31;;;;;;;;;;;22.10;78.40;;;;;;5092577;28;19938;-64
2023/08/25 14:12:57;;;;;;;;;;;22.10;78.40;;;;;;5074637;28;19920;-65
2023/08/25 14:15:22;;;;;;;;;;;22.10;78.30;;;;;;5092707;28;19981;-64
2023/08/25 14:17:48;;;;;;;;;;;22.10;78.30;;;;;;5092663;28;19916;-64
2023/08/25 14:20:14;;;;;;;;;;;22.10;78.30;;;;;;5092601;28;19938;-64